Ucluelet, Canada
Current Conditions -  °F | °C
As of 5:00 PM on Saturday 24 Jan 2015 (Local Time) from CYAZ Reporting Station
Light Rain Light Rain  
Wind Chill: 11°   Ceiling: 900
Heat Index: 11°   Visibility: 0.25mi
Dew Point: 10°   Wind: 9mph
Humidity: 94%   Direction: 150°SSE
Pressure: 30.17"   Gusts: NA
Location:  48.94°N, 125.54°W
Report Text: CYAZ 250100Z 15008KT 1/4SM -RA FG VV009 11/10 A3017 RMK FG8 VRY LGT RA LAST OBS/NEXT 251500UTC SLP218
Loading
Personal Weather Stations






























Interactive Weather Map New forecast layout! Learn more

10-Day Weather Forecast

Advertisements
Track Severe Weather on mobile